createdAt,value
2023-06-01T00:00:39.406Z,11.56
2023-06-01T00:06:02.050Z,11.46
2023-06-01T00:11:04.757Z,11.32
2023-06-01T00:16:07.567Z,11.18
2023-06-01T00:21:10.538Z,11.05
2023-06-01T00:26:13.194Z,10.96
2023-06-01T00:31:15.884Z,10.87
2023-06-01T00:36:18.549Z,10.78
2023-06-01T00:41:21.829Z,10.70
2023-06-01T00:46:24.857Z,10.63
2023-06-01T00:51:27.646Z,10.57
2023-06-01T00:56:32.502Z,10.52
2023-06-01T01:01:37.500Z,10.51
2023-06-01T01:07:09.160Z,10.51
2023-06-01T01:12:27.712Z,10.52
2023-06-01T01:17:34.099Z,11.53
2023-06-01T01:22:39.498Z,14.19
2023-06-01T01:28:03.751Z,14.74
2023-06-01T01:33:07.876Z,13.17
2023-06-01T01:38:10.499Z,12.33
2023-06-01T01:43:13.311Z,11.81
2023-06-01T01:48:28.391Z,11.41
2023-06-01T01:53:31.519Z,11.09
2023-06-01T01:58:34.903Z,10.83
2023-06-01T02:03:37.605Z,10.65
2023-06-01T02:08:40.471Z,10.82
2023-06-01T02:13:43.018Z,11.59
2023-06-01T02:18:46.798Z,11.11
2023-06-01T02:23:49.367Z,10.90
2023-06-01T02:28:51.920Z,11.05
2023-06-01T02:33:54.624Z,10.78
2023-06-01T02:38:57.450Z,11.46
2023-06-01T02:44:00.275Z,14.01
2023-06-01T02:49:02.922Z,13.85
2023-06-01T02:54:05.494Z,12.65
2023-06-01T02:59:08.033Z,12.02
2023-06-01T03:04:13.299Z,11.62
2023-06-01T03:09:16.664Z,11.33
2023-06-01T03:14:19.455Z,11.17
2023-06-01T03:19:22.037Z,12.01
2023-06-01T03:24:28.610Z,14.65
2023-06-01T03:29:31.306Z,14.59
2023-06-01T03:34:34.395Z,13.39
2023-06-01T03:39:37.395Z,12.75
2023-06-01T03:44:42.839Z,12.39
2023-06-01T03:49:45.390Z,12.17
2023-06-01T03:54:47.948Z,12.94
2023-06-01T03:59:51.765Z,15.56
2023-06-01T04:04:54.366Z,15.56
2023-06-01T04:09:57.030Z,14.35
2023-06-01T04:14:59.646Z,13.85
2023-06-01T04:20:02.166Z,13.66
2023-06-01T04:25:12.630Z,13.57
2023-06-01T04:30:16.943Z,14.56
2023-06-01T04:35:19.602Z,17.04
2023-06-01T04:40:22.222Z,16.65
2023-06-01T04:45:26.726Z,15.87
2023-06-01T04:50:30.088Z,15.46
2023-06-01T04:55:32.969Z,15.22
2023-06-01T05:00:36.034Z,15.06
2023-06-01T05:05:41.242Z,15.02
2023-06-01T05:10:44.141Z,15.05
2023-06-01T05:15:46.762Z,15.16
2023-06-01T05:20:49.359Z,17.19
2023-06-01T05:25:52.115Z,18.51
2023-06-01T05:30:55.421Z,17.53
2023-06-01T05:35:58.183Z,16.99
2023-06-01T05:41:00.945Z,16.75
2023-06-01T05:46:04.364Z,16.65
2023-06-01T05:51:06.994Z,16.64
2023-06-01T05:56:09.726Z,16.68
2023-06-01T06:01:12.408Z,16.79
2023-06-01T06:06:15.058Z,16.90
2023-06-01T06:11:17.812Z,17.06
2023-06-01T06:16:20.710Z,17.27
2023-06-01T06:21:23.522Z,17.44
2023-06-01T06:26:29.884Z,17.59
2023-06-01T06:31:32.508Z,17.74
2023-06-01T06:36:35.101Z,17.90
2023-06-01T06:41:37.685Z,18.09
2023-06-01T06:46:40.525Z,18.24
2023-06-01T06:51:43.139Z,18.40
2023-06-01T06:56:45.833Z,18.57
2023-06-01T07:01:48.960Z,18.74
2023-06-01T07:06:52.927Z,18.90
2023-06-01T07:11:55.730Z,19.09
2023-06-01T07:16:58.375Z,19.26
2023-06-01T07:22:01.626Z,19.31
2023-06-01T07:27:04.692Z,19.45
2023-06-01T07:32:07.547Z,19.57
2023-06-01T07:37:17.687Z,19.73
2023-06-01T07:42:21.697Z,19.94
2023-06-01T07:47:26.227Z,20.10
2023-06-01T07:52:28.931Z,20.24
2023-06-01T07:57:31.757Z,20.39
2023-06-01T08:02:34.548Z,20.59
2023-06-01T08:07:39.032Z,20.64
2023-06-01T08:12:43.779Z,20.75
2023-06-01T08:17:46.723Z,21.00
2023-06-01T08:22:50.576Z,21.08
2023-06-01T08:27:53.809Z,21.11
2023-06-01T08:32:56.500Z,21.18
2023-06-01T08:37:59.133Z,21.16
2023-06-01T08:43:20.630Z,21.27
2023-06-01T08:48:25.520Z,21.19
2023-06-01T08:53:29.865Z,21.29
2023-06-01T08:58:32.953Z,21.36
2023-06-01T09:03:35.705Z,21.43
2023-06-01T09:08:38.423Z,21.68
2023-06-01T09:13:42.622Z,21.74
2023-06-01T09:18:54.975Z,21.85
2023-06-01T09:24:18.191Z,21.98
2023-06-01T09:29:21.094Z,22.14
2023-06-01T09:34:23.696Z,22.21
2023-06-01T09:39:26.998Z,22.26
2023-06-01T09:44:34.214Z,22.34
2023-06-01T09:49:39.837Z,22.48
2023-06-01T09:54:47.394Z,22.62
2023-06-01T09:59:50.193Z,22.92
2023-06-01T10:04:59.010Z,23.16
2023-06-01T10:10:04.754Z,23.36
2023-06-01T10:15:20.521Z,23.44
2023-06-01T10:20:34.292Z,23.76
2023-06-01T10:25:44.376Z,24.06
2023-06-01T10:30:47.323Z,23.99
2023-06-01T10:35:50.413Z,23.93
2023-06-01T10:40:53.407Z,23.95
2023-06-01T10:45:56.200Z,24.23
2023-06-01T10:51:19.458Z,24.31
2023-06-01T10:56:24.958Z,24.06
2023-06-01T11:01:28.109Z,23.76
2023-06-01T11:06:34.818Z,23.89
2023-06-01T11:11:49.916Z,24.50
2023-06-01T11:16:53.931Z,24.96
2023-06-01T11:22:05.039Z,25.38
2023-06-01T11:27:10.305Z,25.51
2023-06-01T11:32:15.032Z,25.03
2023-06-01T11:37:19.548Z,24.95
2023-06-01T11:42:23.587Z,24.94
2023-06-01T11:47:31.046Z,24.65
2023-06-01T11:52:35.574Z,24.52
2023-06-01T11:57:42.988Z,24.82
2023-06-01T12:02:45.903Z,25.16
2023-06-01T12:07:54.344Z,25.68
2023-06-01T12:12:57.117Z,26.12
2023-06-01T12:18:00.624Z,26.31
2023-06-01T12:23:21.662Z,26.23
2023-06-01T12:28:27.637Z,25.62
2023-06-01T12:33:36.893Z,25.29
2023-06-01T12:38:53.181Z,25.26
2023-06-01T12:43:57.046Z,25.04
2023-06-01T12:49:18.972Z,24.95
2023-06-01T12:54:21.691Z,25.38
2023-06-01T12:59:24.443Z,25.78
2023-06-01T13:04:27.450Z,26.33
2023-06-01T13:09:30.131Z,26.55
2023-06-01T13:14:32.715Z,26.30
2023-06-01T13:19:35.611Z,26.45
2023-06-01T13:29:43.727Z,26.32
2023-06-01T13:34:46.385Z,26.20
2023-06-01T13:39:49.120Z,26.06
2023-06-01T13:44:52.031Z,25.76
2023-06-01T13:49:54.799Z,25.89
2023-06-01T13:54:58.138Z,26.50
2023-06-01T14:00:00.909Z,26.90
2023-06-01T14:05:08.141Z,26.82
2023-06-01T14:10:14.755Z,27.24
2023-06-01T14:15:17.505Z,27.81
2023-06-01T14:20:20.507Z,28.72
2023-06-01T14:25:23.186Z,29.22
2023-06-01T14:30:27.620Z,28.99
2023-06-01T14:35:30.582Z,28.90
2023-06-01T14:40:33.184Z,29.12
2023-06-01T14:45:35.995Z,29.58
2023-06-01T14:50:38.641Z,29.89
2023-06-01T14:55:41.978Z,30.26
2023-06-01T15:00:44.606Z,30.39
2023-06-01T15:05:47.243Z,30.08
2023-06-01T15:10:49.893Z,30.28
2023-06-01T15:15:52.409Z,29.51
2023-06-01T15:20:55.007Z,29.48
2023-06-01T15:25:57.669Z,29.42
2023-06-01T15:31:00.569Z,29.24
2023-06-01T15:36:03.586Z,29.65
2023-06-01T15:41:07.487Z,30.02
2023-06-01T15:46:10.172Z,29.56
2023-06-01T15:51:12.709Z,28.85
2023-06-01T15:56:16.477Z,28.22
2023-06-01T16:01:29.177Z,27.95
2023-06-01T16:06:32.688Z,28.21
2023-06-01T16:11:35.529Z,28.24
2023-06-01T16:16:38.391Z,28.14
2023-06-01T16:21:41.107Z,28.24
2023-06-01T16:26:43.990Z,27.54
2023-06-01T16:31:47.008Z,26.29
2023-06-01T16:36:49.592Z,25.04
2023-06-01T16:41:52.537Z,23.98
2023-06-01T16:46:55.368Z,23.24
2023-06-01T16:51:57.979Z,23.16
2023-06-01T16:57:02.117Z,23.80
2023-06-01T17:02:05.114Z,24.40
2023-06-01T17:07:07.973Z,24.81
2023-06-01T17:12:15.806Z,23.83
2023-06-01T17:17:20.708Z,22.23
2023-06-01T17:22:24.047Z,21.10
2023-06-01T17:27:27.035Z,20.31
2023-06-01T17:32:29.877Z,19.78
2023-06-01T17:37:32.924Z,19.25
2023-06-01T17:42:35.971Z,18.80
2023-06-01T17:47:38.958Z,18.50
2023-06-01T17:52:41.900Z,18.18
2023-06-01T17:57:44.727Z,17.72
2023-06-01T18:02:47.724Z,17.40
2023-06-01T18:07:50.608Z,17.10
2023-06-01T18:12:53.540Z,17.79
2023-06-01T18:17:56.555Z,17.88
2023-06-01T18:22:59.435Z,16.98
2023-06-01T18:28:02.860Z,17.84
2023-06-01T18:33:06.724Z,17.96
2023-06-01T18:38:10.697Z,16.76
2023-06-01T18:43:14.943Z,16.21
2023-06-01T18:48:24.901Z,17.97
2023-06-01T18:53:28.027Z,18.18
2023-06-01T18:58:30.964Z,16.83
2023-06-01T19:03:34.945Z,17.94
2023-06-01T19:08:38.221Z,17.16
2023-06-01T19:13:43.800Z,17.26
2023-06-01T19:18:51.716Z,17.83
2023-06-01T19:23:55.968Z,16.44
2023-06-01T19:29:11.604Z,17.79
2023-06-01T19:34:14.954Z,16.71
2023-06-01T19:39:39.290Z,17.00
2023-06-01T19:44:45.471Z,18.14
2023-06-01T19:49:51.477Z,16.73
2023-06-01T19:54:57.080Z,17.88
2023-06-01T20:00:00.008Z,17.84
2023-06-01T20:05:06.993Z,16.96
2023-06-01T20:10:20.191Z,18.28
2023-06-01T20:15:29.689Z,16.86
2023-06-01T20:20:37.796Z,17.65
2023-06-01T20:25:42.702Z,17.90
2023-06-01T20:31:06.347Z,16.82
2023-06-01T20:36:09.853Z,18.22
2023-06-01T20:41:14.533Z,16.91
2023-06-01T20:46:17.464Z,17.55
2023-06-01T20:51:34.776Z,18.09
2023-06-01T20:56:42.664Z,16.38
2023-06-01T21:01:48.411Z,17.42
2023-06-01T21:06:51.824Z,17.49
2023-06-01T21:11:56.940Z,16.99
2023-06-01T21:17:05.170Z,17.17
2023-06-01T21:22:07.906Z,16.26
2023-06-01T21:27:10.541Z,17.94
2023-06-01T21:32:13.312Z,17.99
2023-06-01T21:37:15.874Z,16.78
2023-06-01T21:42:19.254Z,17.62
2023-06-01T21:47:22.085Z,16.71
2023-06-01T21:52:24.667Z,18.10
2023-06-01T21:57:27.456Z,18.22
2023-06-01T22:02:30.081Z,17.06
2023-06-01T22:07:32.814Z,18.31
2023-06-01T22:12:36.776Z,17.95
2023-06-01T22:17:39.570Z,17.00
2023-06-01T22:22:42.838Z,18.33
2023-06-01T22:27:45.535Z,17.01
2023-06-01T22:32:48.165Z,17.60
2023-06-01T22:37:50.906Z,17.94
2023-06-01T22:42:54.124Z,16.66
2023-06-01T22:47:56.817Z,18.01
2023-06-01T22:53:00.561Z,18.04
2023-06-01T22:58:03.145Z,16.73
2023-06-01T23:03:06.184Z,18.02
2023-06-01T23:08:20.421Z,17.45
2023-06-01T23:13:24.242Z,16.84
2023-06-01T23:18:29.816Z,18.15
2023-06-01T23:23:34.110Z,16.78
2023-06-01T23:29:05.012Z,17.84
2023-06-01T23:34:07.762Z,16.86
2023-06-01T23:39:13.135Z,17.05
2023-06-01T23:44:16.593Z,17.94
2023-06-01T23:49:19.361Z,16.33
2023-06-01T23:54:22.052Z,17.17
2023-06-01T23:59:24.650Z,17.58
